Time;durP1;ratioP1;P1;durP2;ratioP2;P2;SDS_P1;SDS_P2;PMS_P1;PMS_P2;Temp;Humidity;BMP_temperature;BMP_pressure;BME280_temperature;BME280_humidity;BME280_pressure;Samples;Min_cycle;Max_cycle;Signal;HPM_P1;HPM_P2
2021/12/27 00:00:26;;;;;;;0.98;0.98;;;-0.50;99.90;;;;;;5151979;27;20036;-82
2021/12/27 00:02:55;;;;;;;1.70;1.60;;;-0.50;99.90;;;;;;5118349;28;20096;-84
2021/12/27 00:05:21;;;;;;;1.55;1.45;;;-0.40;99.90;;;;;;5119033;28;20084;-82
2021/12/27 00:07:51;;;;;;;0.80;0.80;;;-0.50;99.90;;;;;;5122451;28;20118;-80
2021/12/27 00:10:19;;;;;;;1.05;1.02;;;-0.50;99.90;;;;;;5119489;28;20055;-83
2021/12/27 00:12:44;;;;;;;1.73;1.63;;;-0.50;99.90;;;;;;5117926;28;20092;-81
2021/12/27 00:15:13;;;;;;;0.90;0.90;;;-0.50;99.90;;;;;;5116294;28;20127;-84
2021/12/27 00:17:40;;;;;;;1.65;1.55;;;-0.40;99.90;;;;;;5117860;28;20040;-82
2021/12/27 00:20:07;;;;;;;1.33;1.23;;;-0.50;99.90;;;;;;5116505;28;20117;-82
2021/12/27 00:22:32;;;;;;;1.73;1.63;;;-0.50;99.90;;;;;;5116453;28;20035;-82
2021/12/27 00:24:58;;;;;;;4.07;2.15;;;-0.50;99.90;;;;;;5116296;28;20031;-83
2021/12/27 00:27:24;;;;;;;1.60;1.50;;;-0.30;99.90;;;;;;5116546;28;20540;-82
2021/12/27 00:29:51;;;;;;;0.90;0.90;;;-0.50;99.90;;;;;;5133525;27;20035;-84
2021/12/27 00:32:17;;;;;;;3.28;2.97;;;-0.50;99.90;;;;;;5117399;28;20491;-82
2021/12/27 00:34:42;;;;;;;0.90;0.90;;;-0.40;99.90;;;;;;5116554;28;20035;-83
2021/12/27 00:37:09;;;;;;;1.43;1.33;;;-0.50;99.90;;;;;;5117537;28;20513;-84
2021/12/27 00:39:36;;;;;;;1.88;1.77;;;-0.50;99.90;;;;;;5117539;28;20055;-85
2021/12/27 00:42:02;;;;;;;1.60;1.50;;;-0.40;99.90;;;;;;5116077;28;20031;-84
2021/12/27 00:44:28;;;;;;;1.83;1.67;;;-0.50;99.90;;;;;;5115633;28;20036;-83
2021/12/27 00:46:54;;;;;;;0.80;0.80;;;-0.50;99.90;;;;;;5117319;28;20066;-82
2021/12/27 00:49:20;;;;;;;1.25;1.15;;;-0.50;99.90;;;;;;5150471;27;20103;-81
2021/12/27 00:51:45;;;;;;;1.83;1.73;;;-0.50;99.90;;;;;;5115520;28;20513;-82
2021/12/27 00:54:11;;;;;;;0.80;0.80;;;-0.50;99.90;;;;;;5115825;28;20399;-83
2021/12/27 00:56:36;;;;;;;1.80;1.52;;;-0.50;99.90;;;;;;5098797;28;20100;-85
2021/12/27 00:59:02;;;;;;;1.35;1.25;;;-0.50;99.90;;;;;;5117022;28;20050;-85
2021/12/27 01:01:28;;;;;;;1.10;1.00;;;-0.50;99.90;;;;;;5156295;27;20042;-84
2021/12/27 01:03:53;;;;;;;1.13;1.10;;;-0.50;99.90;;;;;;5124287;28;20114;-84
2021/12/27 01:06:19;;;;;;;1.17;1.08;;;-0.50;99.90;;;;;;5121868;28;20112;-83
2021/12/27 01:08:44;;;;;;;2.90;2.70;;;-0.50;99.90;;;;;;5155294;27;20032;-82
2021/12/27 01:11:24;;;;;;;0.82;0.82;;;-0.50;99.90;;;;;;5119358;28;20575;-83
2021/12/27 01:16:28;;;;;;;1.00;1.00;;;-0.50;99.90;;;;;;5118775;28;20111;-83
2021/12/27 01:18:54;;;;;;;1.02;1.00;;;-0.50;99.90;;;;;;5100232;28;20051;-83
2021/12/27 01:21:22;;;;;;;3.03;2.80;;;-0.40;99.90;;;;;;5132665;27;20036;-85
2021/12/27 01:23:49;;;;;;;0.85;0.85;;;-0.40;99.90;;;;;;5116555;27;20043;-81
2021/12/27 01:26:16;;;;;;;3.40;2.40;;;-0.40;99.90;;;;;;5116565;28;20031;-82
2021/12/27 01:28:43;;;;;;;0.90;0.90;;;-0.40;99.90;;;;;;5115295;28;20036;-83
2021/12/27 01:31:09;;;;;;;;;;;-0.40;99.90;;;;;;5115315;28;20042;-84
2021/12/27 01:33:35;;;;;;;0.95;0.95;;;;;;;;;;5115041;28;19916;-82
2021/12/27 01:36:02;;;;;;;0.90;0.90;;;-0.40;99.90;;;;;;5114729;28;20043;-82
2021/12/27 01:38:28;;;;;;;0.90;0.90;;;-0.40;99.90;;;;;;5115114;28;20046;-84
2021/12/27 01:40:56;;;;;;;1.20;1.10;;;-0.40;99.90;;;;;;5115120;28;20040;-83
2021/12/27 01:43:29;;;;;;;1.35;1.25;;;-0.10;99.90;;;;;;5097944;28;20036;-83
2021/12/27 01:45:58;;;;;;;1.67;1.58;;;-0.40;99.90;;;;;;5115992;28;20046;-84
2021/12/27 01:48:28;;;;;;;1.60;1.42;;;-0.40;99.90;;;;;;5098062;28;20031;-85
2021/12/27 01:50:56;;;;;;;1.75;1.65;;;-0.30;99.90;;;;;;5116170;28;20035;-83
2021/12/27 01:53:24;;;;;;;1.05;1.05;;;-1.10;99.90;;;;;;5114518;28;20055;-85
2021/12/27 01:55:52;;;;;;;1.27;1.17;;;-0.40;99.90;;;;;;5114749;28;20380;-83
2021/12/27 01:58:19;;;;;;;2.40;2.20;;;-0.40;99.90;;;;;;5115628;28;20043;-82
2021/12/27 02:00:48;;;;;;;1.70;1.60;;;-0.40;99.90;;;;;;5114327;28;20036;-82
2021/12/27 02:03:16;;;;;;;1.55;1.45;;;-0.40;99.90;;;;;;5115501;28;20092;-84
2021/12/27 02:05:42;;;;;;;1.35;1.25;;;-0.20;99.90;;;;;;5115780;28;20062;-85
2021/12/27 02:08:09;;;;;;;1.92;1.83;;;-0.40;99.90;;;;;;5097352;28;20039;-82
2021/12/27 02:10:34;;;;;;;1.52;1.42;;;-0.40;99.90;;;;;;5114163;28;20088;-83
2021/12/27 02:13:00;;;;;;;1.00;0.90;;;-0.30;99.90;;;;;;5114044;28;20118;-84
2021/12/27 02:15:26;;;;;;;1.30;1.20;;;-0.30;99.90;;;;;;5115632;28;20044;-83
2021/12/27 02:17:52;;;;;;;0.90;0.90;;;-0.30;99.90;;;;;;5114094;28;20146;-82
2021/12/27 02:20:20;;;;;;;2.35;2.15;;;-0.40;99.90;;;;;;5115474;28;20043;-82
2021/12/27 02:22:47;;;;;;;0.80;0.80;;;-0.30;99.90;;;;;;5097210;28;20036;-86
2021/12/27 02:25:15;;;;;;;1.48;1.38;;;-0.40;99.90;;;;;;5113857;28;20047;-82
2021/12/27 02:27:41;;;;;;;1.00;0.90;;;-0.10;99.90;;;;;;5096756;28;20112;-84
2021/12/27 02:30:11;;;;;;;1.95;1.45;;;-0.30;99.90;;;;;;5115894;28;20051;-81
2021/12/27 02:32:45;;;;;;;7.88;3.40;;;-0.30;99.90;;;;;;5121800;28;20047;-84
2021/12/27 02:35:17;;;;;;;0.90;0.90;;;-0.20;99.90;;;;;;5116792;28;20049;-82
2021/12/27 02:37:42;;;;;;;1.77;1.25;;;-0.20;99.90;;;;;;5115394;28;20042;-84
2021/12/27 02:40:09;;;;;;;1.25;1.15;;;-0.40;99.90;;;;;;5115200;28;20036;-84
2021/12/27 02:42:34;;;;;;;0.98;0.98;;;-0.30;99.90;;;;;;5113734;28;20031;-84
2021/12/27 02:45:00;;;;;;;1.30;1.20;;;-0.30;99.90;;;;;;5148273;27;20387;-83
2021/12/27 02:47:26;;;;;;;1.53;1.43;;;-0.30;99.90;;;;;;5114591;28;20105;-84
2021/12/27 02:49:51;;;;;;;1.10;1.00;;;-0.20;99.90;;;;;;5114869;28;20027;-84
2021/12/27 02:52:17;;;;;;;3.42;3.20;;;-0.20;99.90;;;;;;5147728;27;20047;-86
2021/12/27 02:54:44;;;;;;;1.40;1.30;;;-0.20;99.90;;;;;;5113388;28;20126;-83
2021/12/27 02:57:10;;;;;;;1.17;1.13;;;-0.20;99.90;;;;;;5114762;28;20063;-85
2021/12/27 02:59:36;;;;;;;1.33;1.23;;;-0.40;99.90;;;;;;5113427;28;20067;-83
2021/12/27 03:02:02;;;;;;;1.20;1.10;;;-0.10;99.90;;;;;;5113679;28;20569;-82
2021/12/27 03:04:34;;;;;;;1.35;1.25;;;-0.20;99.90;;;;;;5114672;28;20089;-82
2021/12/27 03:07:00;;;;;;;9.10;5.65;;;-0.20;99.90;;;;;;5096180;28;20042;-82
2021/12/27 03:09:27;;;;;;;2.25;2.15;;;-0.20;99.90;;;;;;5113463;28;20032;-83
2021/12/27 03:11:53;;;;;;;1.20;1.10;;;-0.20;99.90;;;;;;5113332;28;20036;-82
2021/12/27 03:14:20;;;;;;;1.35;1.33;;;-0.20;99.90;;;;;;5113367;28;20046;-84
2021/12/27 03:16:46;;;;;;;1.08;1.00;;;-0.20;99.90;;;;;;5114302;28;20118;-85
2021/12/27 03:19:12;;;;;;;0.70;0.70;;;-0.20;99.90;;;;;;5114412;28;20075;-83
2021/12/27 03:21:38;;;;;;;1.50;1.25;;;-0.20;99.90;;;;;;5114390;28;20065;-82
2021/12/27 03:24:03;;;;;;;8.15;4.15;;;-0.20;99.90;;;;;;5112895;28;20039;-82
2021/12/27 03:26:29;;;;;;;0.90;0.90;;;-0.20;99.90;;;;;;5112831;28;20088;-83
2021/12/27 03:28:54;;;;;;;0.80;0.80;;;-0.20;99.90;;;;;;5095882;28;20499;-83
2021/12/27 03:31:20;;;;;;;5.18;3.53;;;;;;;;;;5114229;28;20039;-83
2021/12/27 03:33:47;;;;;;;2.38;1.95;;;-0.20;99.90;;;;;;5114212;28;20044;-84
2021/12/27 03:36:12;;;;;;;1.23;1.13;;;-0.20;99.90;;;;;;5095986;28;20126;-84
2021/12/27 03:38:42;;;;;;;1.00;0.98;;;-0.20;99.90;;;;;;5112660;28;20129;-83
2021/12/27 03:41:12;;;;;;;1.15;1.05;;;-0.20;99.90;;;;;;5112928;28;20117;-83
2021/12/27 03:43:38;;;;;;;1.63;1.52;;;-0.20;99.90;;;;;;5112946;28;20046;-83
2021/12/27 03:46:04;;;;;;;2.42;2.25;;;-0.20;99.90;;;;;;5112915;28;20433;-84
2021/12/27 03:48:30;;;;;;;1.23;1.13;;;-0.20;99.90;;;;;;5114057;28;20047;-84
2021/12/27 03:50:56;;;;;;;1.73;1.63;;;-0.10;99.90;;;;;;5114354;28;20114;-86
2021/12/27 03:53:22;;;;;;;1.10;1.02;;;-0.20;99.90;;;;;;5112586;28;20077;-85
2021/12/27 03:55:48;;;;;;;6.03;2.87;;;-0.10;99.90;;;;;;5112699;28;20043;-85
2021/12/27 03:59:21;;;;;;;1.20;1.10;;;-0.10;99.90;;;;;;5112868;28;20120;-82
2021/12/27 04:01:16;;;;;;;2.65;2.45;;;0.00;99.90;;;;;;5098910;28;20044;-86
2021/12/27 04:03:47;;;;;;;1.92;1.25;;;-0.10;99.90;;;;;;5095635;28;20035;-85
2021/12/27 04:06:15;;;;;;;2.15;1.88;;;-0.10;99.90;;;;;;5113770;28;20084;-83
2021/12/27 04:08:41;;;;;;;1.65;1.30;;;-0.20;99.90;;;;;;5112565;28;20083;-83
2021/12/27 04:11:06;;;;;;;1.35;1.25;;;-0.10;99.90;;;;;;5112207;28;20118;-82
2021/12/27 04:13:32;;;;;;;1.03;1.03;;;-0.10;99.90;;;;;;5112759;28;20042;-84
2021/12/27 04:15:58;;;;;;;1.00;1.00;;;-0.10;99.90;;;;;;5114094;28;20092;-81
2021/12/27 04:18:24;;;;;;;1.43;1.33;;;-0.10;99.90;;;;;;5113989;28;20032;-84
2021/12/27 04:20:49;;;;;;;1.00;1.00;;;-0.10;99.90;;;;;;5113770;28;20119;-86
2021/12/27 04:23:15;;;;;;;4.28;1.25;;;-0.10;99.90;;;;;;5095735;28;20032;-83
2021/12/27 04:25:41;;;;;;;1.87;1.77;;;-0.10;99.90;;;;;;5146726;27;20039;-83
2021/12/27 04:28:07;;;;;;;1.33;1.23;;;-0.10;99.90;;;;;;5112421;28;20529;-84
2021/12/27 04:30:33;;;;;;;2.10;2.00;;;-0.10;99.90;;;;;;5112378;28;20422;-84
2021/12/27 04:32:59;;;;;;;1.30;1.20;;;0.00;99.90;;;;;;5112475;28;20061;-83
2021/12/27 04:35:25;;;;;;;4.45;3.95;;;-0.10;99.90;;;;;;5115737;28;20074;-84
2021/12/27 04:37:50;;;;;;;2.60;2.47;;;-0.20;99.90;;;;;;5116072;28;20050;-83
2021/12/27 04:40:20;;;;;;;2.28;2.15;;;-0.10;99.90;;;;;;5150437;27;20126;-82
2021/12/27 04:42:51;;;;;;;1.23;1.13;;;0.00;99.90;;;;;;5117160;28;20047;-82
2021/12/27 04:45:17;;;;;;;1.08;1.02;;;-0.10;99.90;;;;;;5117371;28;20039;-83
2021/12/27 04:47:43;;;;;;;4.28;3.90;;;-0.10;99.90;;;;;;5116014;28;20028;-86
2021/12/27 04:50:09;;;;;;;0.95;0.93;;;-0.10;99.90;;;;;;5117404;28;20035;-82
2021/12/27 04:52:35;;;;;;;3.42;2.75;;;-0.10;99.90;;;;;;5115884;28;20056;-82
2021/12/27 04:55:02;;;;;;;1.27;1.17;;;-0.10;99.90;;;;;;5117394;28;20062;-81
2021/12/27 04:57:28;;;;;;;1.58;1.48;;;-0.10;99.90;;;;;;5115619;28;20039;-82
2021/12/27 04:59:54;;;;;;;2.88;2.25;;;-0.10;99.90;;;;;;5115528;28;20044;-86
2021/12/27 05:02:19;;;;;;;1.33;1.23;;;-0.10;99.90;;;;;;5150396;27;20039;-87
2021/12/27 05:04:45;;;;;;;4.03;2.85;;;0.10;99.90;;;;;;5149997;27;20035;-84
2021/12/27 05:07:11;;;;;;;0.90;0.90;;;0.00;99.90;;;;;;5116968;28;20039;-83
2021/12/27 05:09:36;;;;;;;1.90;1.80;;;-0.10;99.90;;;;;;5115770;28;20063;-86
2021/12/27 05:12:02;;;;;;;1.10;1.03;;;0.00;99.90;;;;;;5116538;28;20035;-82
2021/12/27 05:14:28;;;;;;;1.23;1.13;;;0.00;99.90;;;;;;5115334;28;20493;-84
2021/12/27 05:16:53;;;;;;;29.45;5.15;;;0.00;99.90;;;;;;5116911;28;20053;-82
2021/12/27 05:19:19;;;;;;;5.90;2.65;;;0.00;99.90;;;;;;5150223;27;20051;-85
2021/12/27 05:21:44;;;;;;;1.20;1.10;;;0.00;99.90;;;;;;5126278;28;20047;-82
2021/12/27 05:24:11;;;;;;;1.75;1.52;;;0.50;99.90;;;;;;5126883;28;20032;-81
2021/12/27 05:26:36;;;;;;;1.33;1.23;;;0.00;99.90;;;;;;5127360;28;20479;-88
2021/12/27 05:29:02;;;;;;;3.15;2.05;;;0.00;99.90;;;;;;5149731;27;20028;-83
2021/12/27 05:31:28;;;;;;;1.52;1.42;;;-0.10;99.90;;;;;;5115291;28;20097;-85
2021/12/27 05:33:53;;;;;;;1.00;1.00;;;0.00;99.90;;;;;;5132318;27;20395;-85
2021/12/27 05:36:19;;;;;;;1.90;1.80;;;0.00;99.90;;;;;;5149246;27;20047;-81
2021/12/27 05:38:45;;;;;;;0.80;0.80;;;0.00;99.90;;;;;;5115087;28;20119;-82
2021/12/27 05:41:10;;;;;;;1.50;1.40;;;0.00;99.90;;;;;;5132143;27;20043;-84
2021/12/27 05:43:36;;;;;;;1.58;1.48;;;0.00;99.90;;;;;;5114521;28;20036;-85
2021/12/27 05:46:02;;;;;;;1.13;1.00;;;-0.80;99.90;;;;;;5114091;28;20040;-85
2021/12/27 05:48:28;;;;;;;1.08;1.05;;;-0.30;99.90;;;;;;5114848;28;20035;-85
2021/12/27 05:50:53;;;;;;;0.85;0.85;;;0.00;99.90;;;;;;5149198;27;20184;-83
2021/12/27 05:53:20;;;;;;;1.13;1.13;;;0.10;99.90;;;;;;5115715;28;20066;-83
2021/12/27 05:55:46;;;;;;;1.30;1.20;;;0.10;99.90;;;;;;5116031;28;20046;-82
2021/12/27 05:58:12;;;;;;;1.40;1.30;;;0.10;99.90;;;;;;5115820;28;20031;-84
2021/12/27 06:00:38;;;;;;;1.67;1.58;;;0.10;99.90;;;;;;5115635;28;20496;-83
2021/12/27 06:03:04;;;;;;;;;;;0.10;99.90;;;;;;5116302;28;20031;-84
2021/12/27 06:05:30;;;;;;;2.97;2.70;;;-0.20;99.90;;;;;;5114213;28;19915;-82
2021/12/27 06:07:56;;;;;;;0.90;0.90;;;0.10;99.90;;;;;;5115609;28;20032;-83
2021/12/27 06:10:21;;;;;;;1.15;1.05;;;0.10;99.90;;;;;;5115671;28;20494;-84
2021/12/27 06:12:47;;;;;;;1.38;1.27;;;0.10;99.90;;;;;;5113971;28;20078;-84
2021/12/27 06:15:14;;;;;;;2.73;1.90;;;0.10;99.90;;;;;;5114084;28;20069;-83
2021/12/27 06:17:40;;;;;;;5.50;1.83;;;0.10;99.90;;;;;;5115617;28;20035;-82
2021/12/27 06:20:12;;;;;;;2.17;2.05;;;0.10;99.90;;;;;;5115378;28;20039;-87
2021/12/27 06:22:52;;;;;;;5.57;5.18;;;0.10;99.90;;;;;;5097608;28;20035;-85
2021/12/27 06:25:17;;;;;;;4.57;2.35;;;0.10;99.90;;;;;;5097071;28;20070;-86
2021/12/27 06:27:43;;;;;;;1.10;1.02;;;0.10;99.90;;;;;;5115442;28;20050;-84
2021/12/27 06:30:11;;;;;;;2.63;2.47;;;0.10;99.90;;;;;;5114215;28;20527;-87
2021/12/27 06:32:38;;;;;;;1.55;1.45;;;0.20;99.90;;;;;;5115757;28;20031;-83
2021/12/27 06:35:05;;;;;;;1.20;1.10;;;0.10;99.90;;;;;;5115385;28;20036;-86
2021/12/27 06:37:31;;;;;;;1.30;1.20;;;0.20;99.90;;;;;;5115361;28;20040;-87
2021/12/27 06:39:57;;;;;;;1.20;1.10;;;0.20;99.90;;;;;;5096802;28;20035;-84
2021/12/27 06:42:23;;;;;;;2.47;2.15;;;0.20;99.90;;;;;;5114879;27;20035;-80
2021/12/27 06:44:48;;;;;;;1.98;1.88;;;0.10;99.90;;;;;;5126191;28;20032;-79
2021/12/27 06:47:14;;;;;;;0.85;0.85;;;0.30;99.90;;;;;;5118523;28;20091;-81
2021/12/27 06:49:41;;;;;;;1.20;1.10;;;0.30;99.90;;;;;;5147947;27;20061;-78
2021/12/27 06:52:06;;;;;;;;;;;0.20;99.90;;;;;;5115478;28;20055;-84
2021/12/27 06:54:32;;;;;;;0.88;0.88;;;0.30;99.90;;;;;;5116628;28;19915;-83
2021/12/27 06:56:59;;;;;;;1.23;1.13;;;0.10;99.90;;;;;;5097125;28;20367;-83
2021/12/27 06:59:29;;;;;;;0.93;0.93;;;0.20;99.90;;;;;;5130847;27;20088;-82
2021/12/27 07:01:55;;;;;;;2.65;2.45;;;0.20;99.90;;;;;;5098182;28;20044;-83
2021/12/27 07:04:21;;;;;;;2.58;2.40;;;0.20;99.90;;;;;;5113458;28;20049;-84
2021/12/27 07:06:47;;;;;;;2.58;1.88;;;0.40;99.90;;;;;;5113395;28;20150;-79
2021/12/27 07:09:12;;;;;;;1.27;1.17;;;0.30;99.90;;;;;;5113240;28;20027;-81
2021/12/27 07:11:38;;;;;;;5.88;4.13;;;0.20;99.90;;;;;;5096115;28;20130;-83
2021/12/27 07:14:05;;;;;;;1.73;1.63;;;0.30;99.90;;;;;;5112975;28;20046;-84
2021/12/27 07:16:31;;;;;;;2.35;1.08;;;0.30;99.90;;;;;;5114244;28;20501;-81
2021/12/27 07:18:56;;;;;;;0.80;0.80;;;0.80;99.90;;;;;;5114412;28;20122;-83
2021/12/27 07:21:22;;;;;;;6.40;2.95;;;0.30;99.90;;;;;;5114387;28;20086;-83
2021/12/27 07:23:48;;;;;;;1.38;1.27;;;0.30;99.90;;;;;;5096109;28;20131;-83
2021/12/27 07:26:13;;;;;;;0.80;0.80;;;0.30;99.90;;;;;;5147601;27;20041;-80
2021/12/27 07:28:39;;;;;;;1.23;1.13;;;0.30;99.90;;;;;;5114323;28;20046;-83
2021/12/27 07:31:07;;;;;;;0.70;0.70;;;0.30;99.90;;;;;;5147418;27;20043;-83
2021/12/27 07:33:33;;;;;;;1.75;1.60;;;0.30;99.90;;;;;;5113138;28;20036;-84
2021/12/27 07:35:58;;;;;;;1.65;1.55;;;0.30;99.90;;;;;;5114353;28;20365;-84
2021/12/27 07:38:24;;;;;;;0.88;0.82;;;0.30;99.90;;;;;;5113106;28;20035;-83
2021/12/27 07:40:49;;;;;;;1.25;1.15;;;0.30;99.90;;;;;;5114014;28;20115;-82
2021/12/27 07:43:15;;;;;;;2.65;2.45;;;0.30;99.90;;;;;;5114071;28;20532;-82
2021/12/27 07:45:41;;;;;;;1.10;1.10;;;0.40;99.90;;;;;;5147263;27;20387;-84
2021/12/27 07:48:09;;;;;;;1.55;1.45;;;0.40;99.90;;;;;;5114044;28;20035;-82
2021/12/27 07:50:35;;;;;;;2.38;1.55;;;0.40;99.90;;;;;;5114224;28;20044;-81
2021/12/27 07:53:02;;;;;;;2.10;1.98;;;0.40;99.90;;;;;;5113733;28;20043;-84
2021/12/27 07:55:29;;;;;;;1.00;0.95;;;0.40;99.90;;;;;;5112600;28;20043;-84
2021/12/27 07:57:55;;;;;;;0.88;0.88;;;0.50;99.90;;;;;;5114141;28;20047;-82
2021/12/27 08:00:21;;;;;;;1.20;1.13;;;0.50;99.90;;;;;;5113938;28;20081;-80
2021/12/27 08:02:47;;;;;;;0.90;0.90;;;0.50;99.90;;;;;;5112673;28;20040;-84
2021/12/27 08:05:14;;;;;;;1.60;1.50;;;0.90;99.90;;;;;;5113943;28;20387;-81
2021/12/27 08:07:42;;;;;;;;;;;0.60;99.90;;;;;;5113128;28;20035;-80
2021/12/27 08:10:08;;;;;;;2.95;2.72;;;0.60;99.90;;;;;;5115624;28;19915;-80
2021/12/27 08:12:34;;;;;;;1.00;0.90;;;0.60;99.90;;;;;;5117309;27;20032;-83
2021/12/27 08:15:00;;;;;;;1.53;1.43;;;0.60;99.90;;;;;;5116268;28;20039;-84
2021/12/27 08:17:26;;;;;;;1.17;1.08;;;0.60;99.90;;;;;;5118203;28;20280;-80
2021/12/27 08:19:51;;;;;;;3.55;3.25;;;0.60;99.90;;;;;;5128227;28;20036;-80
2021/12/27 08:22:17;;;;;;;2.67;2.47;;;0.70;99.90;;;;;;5119540;28;20036;-81
2021/12/27 08:24:43;;;;;;;4.03;3.72;;;0.70;99.90;;;;;;5116672;28;20035;-84
2021/12/27 08:27:09;;;;;;;1.20;1.10;;;0.70;99.90;;;;;;5117292;28;20042;-83
2021/12/27 08:29:34;;;;;;;0.80;0.80;;;0.80;99.90;;;;;;5116937;28;20023;-85
2021/12/27 08:32:00;;;;;;;1.67;1.57;;;0.70;99.90;;;;;;5115594;28;20488;-82
2021/12/27 08:34:27;;;;;;;0.80;0.80;;;0.80;99.90;;;;;;5117185;28;20502;-83
2021/12/27 08:36:53;;;;;;;;;;;0.80;99.90;;;;;;5090724;28;20031;-80
2021/12/27 08:39:18;;;;;;;1.80;1.50;;;0.80;99.90;;;;;;5116992;28;19915;-80
2021/12/27 08:41:44;;;;;;;5.47;4.80;;;0.80;99.90;;;;;;5098442;28;20035;-82
2021/12/27 08:44:10;;;;;;;2.55;2.35;;;0.80;99.90;;;;;;5116732;28;20368;-79
2021/12/27 08:46:36;;;;;;;0.80;0.80;;;0.90;99.90;;;;;;5116806;28;20028;-81
2021/12/27 08:49:03;;;;;;;3.60;2.60;;;0.70;99.90;;;;;;5115596;28;20424;-79
2021/12/27 08:51:29;;;;;;;0.98;0.93;;;0.90;99.90;;;;;;5116556;27;20491;-81
2021/12/27 08:53:55;;;;;;;2.67;2.47;;;0.90;99.90;;;;;;5115265;28;20043;-83
2021/12/27 08:56:21;;;;;;;43.72;3.13;;;0.90;99.90;;;;;;5116567;28;20035;-81
2021/12/27 08:58:47;;;;;;;1.23;1.13;;;1.00;99.90;;;;;;5116696;28;20085;-84
2021/12/27 09:01:12;;;;;;;1.50;1.40;;;1.30;99.90;;;;;;5098487;28;20062;-82
2021/12/27 09:03:38;;;;;;;0.80;0.80;;;1.00;99.90;;;;;;5115687;28;20034;-82
2021/12/27 09:06:04;;;;;;;2.88;2.60;;;1.00;99.90;;;;;;5099090;28;20096;-81
2021/12/27 09:08:30;;;;;;;2.33;2.17;;;1.10;99.90;;;;;;5116441;28;20069;-82
2021/12/27 09:10:58;;;;;;;2.10;2.00;;;1.10;99.90;;;;;;5115414;28;20084;-83
2021/12/27 09:13:31;;;;;;;2.22;1.02;;;1.10;99.90;;;;;;5120566;27;21391;-79
2021/12/27 09:16:01;;;;;;;2.20;2.08;;;1.10;99.90;;;;;;5113122;28;20039;-81
2021/12/27 09:18:27;;;;;;;3.05;2.85;;;1.10;99.90;;;;;;5116087;27;20061;-81
2021/12/27 09:20:53;;;;;;;1.23;1.13;;;1.20;99.90;;;;;;5114888;28;20476;-82
2021/12/27 09:23:18;;;;;;;3.13;2.60;;;1.10;99.90;;;;;;5116250;28;20038;-82
2021/12/27 09:25:44;;;;;;;1.25;1.15;;;1.10;99.90;;;;;;5142429;27;20031;-82
2021/12/27 09:28:10;;;;;;;2.35;2.15;;;1.20;99.90;;;;;;5116955;28;20040;-83
2021/12/27 09:30:37;;;;;;;20.77;5.97;;;1.60;99.90;;;;;;5151575;27;20124;-83
2021/12/27 09:33:04;;;;;;;;;;;1.10;99.90;;;;;;5103501;28;20088;-83
2021/12/27 09:35:30;;;;;;;1.65;1.55;;;1.20;99.90;;;;;;5105834;28;19960;-84
2021/12/27 09:37:55;;;;;;;2.10;2.00;;;1.20;99.90;;;;;;5099345;28;20195;-83
2021/12/27 09:40:21;;;;;;;2.63;1.77;;;1.20;99.90;;;;;;5120926;28;20061;-84
2021/12/27 09:42:48;;;;;;;3.17;2.20;;;1.20;99.90;;;;;;5098541;28;20046;-85
2021/12/27 09:45:14;;;;;;;5.22;2.83;;;1.30;99.90;;;;;;5115668;28;20039;-85
2021/12/27 09:47:40;;;;;;;4.68;1.67;;;1.60;99.90;;;;;;5132509;27;20399;-83
2021/12/27 09:50:09;;;;;;;6.28;3.53;;;1.30;99.90;;;;;;5114680;28;20107;-84
2021/12/27 09:52:35;;;;;;;1.23;1.13;;;1.30;99.90;;;;;;5114487;28;20048;-88
2021/12/27 09:55:03;;;;;;;2.27;2.07;;;1.30;99.90;;;;;;5114274;28;20027;-85
2021/12/27 09:57:31;;;;;;;1.42;1.33;;;1.30;99.90;;;;;;5114155;28;20115;-88
2021/12/27 09:59:56;;;;;;;3.13;2.03;;;1.40;99.90;;;;;;5114638;28;20035;-84
2021/12/27 10:02:24;;;;;;;1.23;1.13;;;1.50;99.90;;;;;;5097306;28;20051;-82
2021/12/27 10:04:49;;;;;;;0.85;0.85;;;1.50;99.90;;;;;;5080582;28;20035;-85
2021/12/27 10:07:22;;;;;;;3.17;2.88;;;1.50;99.90;;;;;;5114543;28;20085;-86
2021/12/27 10:09:58;;;;;;;0.80;0.80;;;1.60;99.90;;;;;;5097251;28;20042;-86
2021/12/27 10:12:24;;;;;;;1.20;1.10;;;1.50;99.90;;;;;;5114525;28;20036;-84
2021/12/27 10:15:01;;;;;;;1.08;0.98;;;2.70;99.90;;;;;;5115764;28;20047;-84
2021/12/27 10:17:30;;;;;;;1.02;0.90;;;1.60;99.90;;;;;;5097120;28;20085;-87
2021/12/27 10:20:07;;;;;;;2.30;2.10;;;1.60;99.90;;;;;;5113998;28;20050;-86
2021/12/27 10:22:38;;;;;;;2.40;2.20;;;1.60;99.90;;;;;;5096861;28;20377;-84
2021/12/27 10:25:08;;;;;;;5.22;3.25;;;1.60;99.90;;;;;;5111798;28;20618;-87
2021/12/27 10:27:36;;;;;;;1.45;1.35;;;1.70;99.90;;;;;;5114110;28;20035;-85
2021/12/27 10:30:10;;;;;;;2.45;2.25;;;1.70;99.90;;;;;;5144086;27;20491;-83
2021/12/27 10:32:35;;;;;;;1.67;1.58;;;1.70;99.90;;;;;;5104416;28;20040;-87
2021/12/27 10:35:05;;;;;;;1.50;1.40;;;1.80;99.90;;;;;;5093371;28;20093;-84
2021/12/27 10:37:32;;;;;;;1.15;1.08;;;;;;;;;;5093348;28;20127;-83
2021/12/27 10:40:07;;;;;;;2.67;0.95;;;1.80;99.90;;;;;;5093572;28;20127;-85
2021/12/27 10:42:46;;;;;;;1.45;1.02;;;1.80;99.90;;;;;;5094580;28;20391;-83
2021/12/27 10:45:22;;;;;;;3.92;2.05;;;1.70;99.90;;;;;;5076557;28;20044;-87
2021/12/27 10:47:51;;;;;;;2.42;2.22;;;1.70;99.90;;;;;;5076319;28;20510;-85
2021/12/27 10:50:19;;;;;;;2.42;2.20;;;1.80;99.90;;;;;;5093478;28;20094;-87
2021/12/27 10:53:04;;;;;;;1.40;1.30;;;1.70;99.90;;;;;;5093139;28;20142;-84
2021/12/27 10:55:43;;;;;;;1.60;1.33;;;1.80;99.90;;;;;;5093179;28;20039;-86
2021/12/27 10:58:25;;;;;;;1.55;1.45;;;1.80;99.90;;;;;;5094387;28;20036;-82
2021/12/27 11:01:03;;;;;;;0.77;0.77;;;1.80;99.90;;;;;;5075674;28;20631;-86
2021/12/27 11:03:38;;;;;;;8.57;1.88;;;1.80;99.90;;;;;;5092908;28;20035;-83
2021/12/27 11:06:06;;;;;;;0.82;0.82;;;1.80;99.90;;;;;;5094634;28;20039;-84
2021/12/27 11:08:34;;;;;;;1.42;1.33;;;1.80;99.90;;;;;;5093575;28;20046;-84
2021/12/27 11:11:00;;;;;;;2.38;1.83;;;1.90;99.90;;;;;;5094033;28;20476;-87
2021/12/27 11:13:27;;;;;;;0.70;0.70;;;1.90;99.90;;;;;;5107999;28;20070;-83
2021/12/27 11:15:53;;;;;;;1.90;1.73;;;1.90;99.90;;;;;;5099673;28;20039;-83
2021/12/27 11:18:19;;;;;;;1.25;1.15;;;1.90;99.90;;;;;;5094329;28;20051;-83
2021/12/27 11:20:49;;;;;;;1.75;1.65;;;2.00;99.90;;;;;;5092653;28;20032;-84
2021/12/27 11:23:15;;;;;;;3.60;2.45;;;2.20;99.90;;;;;;5093829;28;20047;-82
2021/12/27 11:25:44;;;;;;;2.22;2.03;;;2.00;99.90;;;;;;5092645;28;20110;-85
2021/12/27 11:28:26;;;;;;;0.85;0.85;;;4.00;99.90;;;;;;5093809;28;20078;-79
2021/12/27 11:30:53;;;;;;;5.30;2.70;;;2.00;99.90;;;;;;5093897;28;20097;-80
2021/12/27 11:33:20;;;;;;;1.02;1.02;;;2.00;99.90;;;;;;5093798;28;20036;-82
2021/12/27 11:35:55;;;;;;;8.15;3.55;;;2.00;99.90;;;;;;5093651;28;20044;-83
2021/12/27 11:38:31;;;;;;;0.80;0.80;;;2.00;99.90;;;;;;5092327;28;20040;-81
2021/12/27 11:40:57;;;;;;;0.80;0.80;;;2.00;99.90;;;;;;5092120;28;20036;-81
2021/12/27 11:43:23;;;;;;;0.88;0.88;;;2.10;99.90;;;;;;5093660;28;20119;-82
2021/12/27 11:45:53;;;;;;;2.67;1.95;;;2.10;99.90;;;;;;5096331;28;20123;-80
2021/12/27 11:48:25;;;;;;;1.60;1.45;;;2.10;99.90;;;;;;5114478;28;20032;-81
2021/12/27 11:50:56;;;;;;;4.72;3.38;;;2.10;99.90;;;;;;5116673;28;20491;-85
2021/12/27 11:53:28;;;;;;;1.42;1.20;;;2.20;99.90;;;;;;5116853;28;20056;-88
2021/12/27 11:55:54;;;;;;;2.45;1.38;;;2.10;99.90;;;;;;5117063;28;20421;-84
2021/12/27 11:58:29;;;;;;;1.00;1.00;;;2.20;99.90;;;;;;5118256;28;20046;-87
2021/12/27 12:00:55;;;;;;;1.15;1.05;;;2.20;99.90;;;;;;5117820;28;20403;-88
2021/12/27 12:03:37;;;;;;;1.40;1.30;;;1.80;99.90;;;;;;5099921;28;20035;-87
2021/12/27 12:06:04;;;;;;;1.90;1.80;;;2.20;99.90;;;;;;5116777;28;20032;-87
2021/12/27 12:08:38;;;;;;;3.75;2.47;;;2.30;99.90;;;;;;5116597;28;20479;-88
2021/12/27 12:11:10;;;;;;;1.45;1.00;;;2.00;99.90;;;;;;5116424;28;20043;-88
2021/12/27 12:13:41;;;;;;;4.97;2.67;;;2.50;99.90;;;;;;5099843;28;20391;-89
2021/12/27 12:16:19;;;;;;;1.30;1.20;;;2.40;99.90;;;;;;5118055;28;20043;-87
2021/12/27 12:18:51;;;;;;;2.65;1.25;;;2.40;99.90;;;;;;5116563;28;20062;-85
2021/12/27 12:21:44;;;;;;;1.75;1.65;;;2.40;99.90;;;;;;5116498;28;20040;-88
2021/12/27 12:24:13;;;;;;;5.70;2.45;;;2.50;99.90;;;;;;5116522;28;20071;-87
2021/12/27 12:27:09;;;;;;;1.65;1.55;;;2.80;99.90;;;;;;5116223;28;20115;-87
2021/12/27 12:29:40;;;;;;;2.78;1.48;;;2.60;99.90;;;;;;5115944;28;20399;-88
2021/12/27 12:32:08;;;;;;;1.10;1.05;;;2.60;99.90;;;;;;5117596;28;20048;-89
2021/12/27 12:34:35;;;;;;;1.35;1.25;;;2.60;99.90;;;;;;5116546;28;20447;-88
2021/12/27 12:37:03;;;;;;;1.40;1.30;;;2.60;99.90;;;;;;5098897;28;20040;-87
2021/12/27 12:39:49;;;;;;;5.88;3.70;;;2.70;99.90;;;;;;5115721;28;20039;-88
2021/12/27 12:42:25;;;;;;;1.65;1.55;;;2.70;99.90;;;;;;5117086;28;20042;-87
2021/12/27 12:45:00;;;;;;;8.40;5.50;;;2.80;99.90;;;;;;5115823;28;20040;-86
2021/12/27 12:47:28;;;;;;;1.52;1.42;;;2.80;99.90;;;;;;5116406;28;20032;-88
2021/12/27 12:49:55;;;;;;;0.90;0.90;;;2.70;99.90;;;;;;5098776;28;20046;-86
2021/12/27 12:52:22;;;;;;;2.25;2.05;;;2.80;99.90;;;;;;5098684;28;20055;-88
2021/12/27 12:54:48;;;;;;;1.27;1.17;;;2.90;99.90;;;;;;5099439;28;20130;-87
2021/12/27 12:57:17;;;;;;;1.33;1.23;;;3.00;99.90;;;;;;5115734;28;20071;-87
2021/12/27 12:59:51;;;;;;;4.43;3.45;;;3.00;99.90;;;;;;5117140;28;20039;-88